sensor_id;sensor_type;location;lat;lon;timestamp;P1;durP1;ratioP1;P2;durP2;ratioP2
68989;SDS011;56046;47.270;11.368;2023-10-08T00:01:14;6.78;;;2.53;;
68989;SDS011;56046;47.270;11.368;2023-10-08T00:03:41;8.43;;;3.13;;
68989;SDS011;56046;47.270;11.368;2023-10-08T00:06:13;7.15;;;2.55;;
68989;SDS011;56046;47.270;11.368;2023-10-08T00:08:39;7.20;;;2.80;;
68989;SDS011;56046;47.270;11.368;2023-10-08T00:11:05;8.33;;;2.83;;
68989;SDS011;56046;47.270;11.368;2023-10-08T00:13:35;8.17;;;3.27;;
68989;SDS011;56046;47.270;11.368;2023-10-08T00:16:05;9.50;;;3.10;;
68989;SDS011;56046;47.270;11.368;2023-10-08T00:18:34;10.52;;;3.30;;
68989;SDS011;56046;47.270;11.368;2023-10-08T00:20:59;7.87;;;3.30;;
68989;SDS011;56046;47.270;11.368;2023-10-08T00:23:41;7.80;;;3.03;;
68989;SDS011;56046;47.270;11.368;2023-10-08T00:26:23;8.02;;;2.88;;
68989;SDS011;56046;47.270;11.368;2023-10-08T00:29:05;6.87;;;2.70;;
68989;SDS011;56046;47.270;11.368;2023-10-08T00:31:46;8.50;;;2.70;;
68989;SDS011;56046;47.270;11.368;2023-10-08T00:34:13;8.75;;;2.90;;
68989;SDS011;56046;47.270;11.368;2023-10-08T00:36:39;10.15;;;2.97;;
68989;SDS011;56046;47.270;11.368;2023-10-08T00:39:06;9.27;;;2.95;;
68989;SDS011;56046;47.270;11.368;2023-10-08T00:41:59;9.80;;;3.10;;
68989;SDS011;56046;47.270;11.368;2023-10-08T00:44:24;7.50;;;2.90;;
68989;SDS011;56046;47.270;11.368;2023-10-08T00:46:55;13.38;;;4.60;;
68989;SDS011;56046;47.270;11.368;2023-10-08T00:49:22;8.35;;;3.00;;
68989;SDS011;56046;47.270;11.368;2023-10-08T00:51:48;9.73;;;2.92;;
68989;SDS011;56046;47.270;11.368;2023-10-08T00:54:24;8.23;;;3.35;;
68989;SDS011;56046;47.270;11.368;2023-10-08T00:56:50;8.07;;;2.70;;
68989;SDS011;56046;47.270;11.368;2023-10-08T00:59:22;8.05;;;3.03;;
68989;SDS011;56046;47.270;11.368;2023-10-08T01:01:49;9.73;;;2.83;;
68989;SDS011;56046;47.270;11.368;2023-10-08T01:04:21;9.73;;;3.55;;
68989;SDS011;56046;47.270;11.368;2023-10-08T01:06:53;11.27;;;2.30;;
68989;SDS011;56046;47.270;11.368;2023-10-08T01:09:26;9.63;;;3.20;;
68989;SDS011;56046;47.270;11.368;2023-10-08T01:12:19;6.53;;;2.97;;
68989;SDS011;56046;47.270;11.368;2023-10-08T01:15:05;7.70;;;2.88;;
68989;SDS011;56046;47.270;11.368;2023-10-08T01:17:50;7.22;;;2.75;;
68989;SDS011;56046;47.270;11.368;2023-10-08T01:20:25;11.60;;;2.93;;
68989;SDS011;56046;47.270;11.368;2023-10-08T01:23:09;10.25;;;2.85;;
68989;SDS011;56046;47.270;11.368;2023-10-08T01:25:36;6.95;;;2.75;;
68989;SDS011;56046;47.270;11.368;2023-10-08T01:28:01;9.27;;;2.67;;
68989;SDS011;56046;47.270;11.368;2023-10-08T01:30:33;8.60;;;3.13;;
68989;SDS011;56046;47.270;11.368;2023-10-08T01:33:07;8.57;;;3.10;;
68989;SDS011;56046;47.270;11.368;2023-10-08T01:35:36;8.02;;;3.03;;
68989;SDS011;56046;47.270;11.368;2023-10-08T01:38:01;10.03;;;2.73;;
68989;SDS011;56046;47.270;11.368;2023-10-08T01:40:28;9.13;;;2.75;;
68989;SDS011;56046;47.270;11.368;2023-10-08T01:42:55;7.82;;;3.15;;
68989;SDS011;56046;47.270;11.368;2023-10-08T01:45:25;7.13;;;2.92;;
68989;SDS011;56046;47.270;11.368;2023-10-08T01:47:50;9.47;;;2.93;;
68989;SDS011;56046;47.270;11.368;2023-10-08T01:50:18;9.65;;;2.80;;
68989;SDS011;56046;47.270;11.368;2023-10-08T01:52:49;8.32;;;3.10;;
68989;SDS011;56046;47.270;11.368;2023-10-08T01:55:14;7.70;;;2.50;;
68989;SDS011;56046;47.270;11.368;2023-10-08T01:57:44;10.13;;;3.90;;
68989;SDS011;56046;47.270;11.368;2023-10-08T02:00:10;9.15;;;3.08;;
68989;SDS011;56046;47.270;11.368;2023-10-08T02:02:35;8.23;;;3.03;;
68989;SDS011;56046;47.270;11.368;2023-10-08T02:05:01;8.75;;;3.05;;
68989;SDS011;56046;47.270;11.368;2023-10-08T02:07:27;12.23;;;3.37;;
68989;SDS011;56046;47.270;11.368;2023-10-08T02:09:53;8.73;;;3.25;;
68989;SDS011;56046;47.270;11.368;2023-10-08T02:12:19;8.53;;;3.50;;
68989;SDS011;56046;47.270;11.368;2023-10-08T02:14:44;9.33;;;3.17;;
68989;SDS011;56046;47.270;11.368;2023-10-08T02:17:09;9.77;;;3.20;;
68989;SDS011;56046;47.270;11.368;2023-10-08T02:19:35;7.77;;;3.07;;
68989;SDS011;56046;47.270;11.368;2023-10-08T02:22:02;8.93;;;3.30;;
68989;SDS011;56046;47.270;11.368;2023-10-08T02:24:30;6.43;;;2.83;;
68989;SDS011;56046;47.270;11.368;2023-10-08T02:26:56;8.43;;;3.25;;
68989;SDS011;56046;47.270;11.368;2023-10-08T02:29:26;7.57;;;3.03;;
68989;SDS011;56046;47.270;11.368;2023-10-08T02:31:51;6.55;;;2.72;;
68989;SDS011;56046;47.270;11.368;2023-10-08T02:34:19;10.77;;;2.92;;
68989;SDS011;56046;47.270;11.368;2023-10-08T02:36:44;7.57;;;3.17;;
68989;SDS011;56046;47.270;11.368;2023-10-08T02:39:12;10.27;;;3.97;;
68989;SDS011;56046;47.270;11.368;2023-10-08T02:41:47;10.32;;;2.97;;
68989;SDS011;56046;47.270;11.368;2023-10-08T02:44:12;7.93;;;2.70;;
68989;SDS011;56046;47.270;11.368;2023-10-08T02:46:42;9.90;;;3.10;;
68989;SDS011;56046;47.270;11.368;2023-10-08T02:49:10;8.63;;;2.73;;
68989;SDS011;56046;47.270;11.368;2023-10-08T02:51:39;9.23;;;3.58;;
68989;SDS011;56046;47.270;11.368;2023-10-08T02:54:06;9.30;;;2.55;;
68989;SDS011;56046;47.270;11.368;2023-10-08T02:56:33;9.02;;;3.25;;
68989;SDS011;56046;47.270;11.368;2023-10-08T02:58:59;8.30;;;2.70;;
68989;SDS011;56046;47.270;11.368;2023-10-08T03:01:25;10.40;;;2.72;;
68989;SDS011;56046;47.270;11.368;2023-10-08T03:03:50;9.13;;;3.37;;
68989;SDS011;56046;47.270;11.368;2023-10-08T03:06:19;9.95;;;2.92;;
68989;SDS011;56046;47.270;11.368;2023-10-08T03:08:44;9.73;;;3.10;;
68989;SDS011;56046;47.270;11.368;2023-10-08T03:11:12;10.60;;;3.05;;
68989;SDS011;56046;47.270;11.368;2023-10-08T03:13:44;13.43;;;3.30;;
68989;SDS011;56046;47.270;11.368;2023-10-08T03:16:14;11.80;;;3.10;;
68989;SDS011;56046;47.270;11.368;2023-10-08T03:18:40;7.30;;;2.50;;
68989;SDS011;56046;47.270;11.368;2023-10-08T03:21:10;7.20;;;2.50;;
68989;SDS011;56046;47.270;11.368;2023-10-08T03:23:56;10.98;;;2.70;;
68989;SDS011;56046;47.270;11.368;2023-10-08T03:26:23;8.95;;;3.88;;
68989;SDS011;56046;47.270;11.368;2023-10-08T03:29:02;10.32;;;2.75;;
68989;SDS011;56046;47.270;11.368;2023-10-08T03:31:32;11.33;;;3.47;;
68989;SDS011;56046;47.270;11.368;2023-10-08T03:34:15;9.10;;;2.67;;
68989;SDS011;56046;47.270;11.368;2023-10-08T03:36:41;10.55;;;3.65;;
68989;SDS011;56046;47.270;11.368;2023-10-08T03:39:18;12.30;;;2.65;;
68989;SDS011;56046;47.270;11.368;2023-10-08T03:41:44;10.88;;;3.40;;
68989;SDS011;56046;47.270;11.368;2023-10-08T03:44:23;8.00;;;3.00;;
68989;SDS011;56046;47.270;11.368;2023-10-08T03:46:49;9.32;;;2.85;;
68989;SDS011;56046;47.270;11.368;2023-10-08T03:49:17;10.60;;;3.10;;
68989;SDS011;56046;47.270;11.368;2023-10-08T03:51:45;8.48;;;2.83;;
68989;SDS011;56046;47.270;11.368;2023-10-08T03:54:11;10.00;;;2.80;;
68989;SDS011;56046;47.270;11.368;2023-10-08T03:56:39;10.00;;;2.85;;
68989;SDS011;56046;47.270;11.368;2023-10-08T03:59:06;10.13;;;2.88;;
68989;SDS011;56046;47.270;11.368;2023-10-08T04:01:50;7.93;;;2.63;;
68989;SDS011;56046;47.270;11.368;2023-10-08T04:04:19;7.95;;;2.55;;
68989;SDS011;56046;47.270;11.368;2023-10-08T04:06:45;8.83;;;3.00;;
68989;SDS011;56046;47.270;11.368;2023-10-08T04:09:19;8.35;;;3.30;;
68989;SDS011;56046;47.270;11.368;2023-10-08T04:11:51;10.33;;;3.00;;
68989;SDS011;56046;47.270;11.368;2023-10-08T04:14:16;9.55;;;3.10;;
68989;SDS011;56046;47.270;11.368;2023-10-08T04:16:42;10.80;;;2.80;;
68989;SDS011;56046;47.270;11.368;2023-10-08T04:19:08;10.37;;;3.27;;
68989;SDS011;56046;47.270;11.368;2023-10-08T04:21:33;8.63;;;3.00;;
68989;SDS011;56046;47.270;11.368;2023-10-08T04:23:59;10.40;;;2.40;;
68989;SDS011;56046;47.270;11.368;2023-10-08T04:26:28;9.48;;;3.22;;
68989;SDS011;56046;47.270;11.368;2023-10-08T04:28:54;9.43;;;3.10;;
68989;SDS011;56046;47.270;11.368;2023-10-08T04:31:22;9.35;;;2.80;;
68989;SDS011;56046;47.270;11.368;2023-10-08T04:33:52;7.80;;;2.60;;
68989;SDS011;56046;47.270;11.368;2023-10-08T04:36:18;10.88;;;2.85;;
68989;SDS011;56046;47.270;11.368;2023-10-08T04:38:44;9.50;;;3.27;;
68989;SDS011;56046;47.270;11.368;2023-10-08T04:41:13;10.40;;;2.80;;
68989;SDS011;56046;47.270;11.368;2023-10-08T04:43:42;8.70;;;3.55;;
68989;SDS011;56046;47.270;11.368;2023-10-08T04:46:08;10.43;;;2.65;;
68989;SDS011;56046;47.270;11.368;2023-10-08T04:49:06;11.77;;;3.67;;
68989;SDS011;56046;47.270;11.368;2023-10-08T04:51:34;19.85;;;7.85;;
68989;SDS011;56046;47.270;11.368;2023-10-08T04:54:05;18.45;;;6.22;;
68989;SDS011;56046;47.270;11.368;2023-10-08T04:56:30;16.43;;;7.07;;
68989;SDS011;56046;47.270;11.368;2023-10-08T04:58:58;10.57;;;3.78;;
68989;SDS011;56046;47.270;11.368;2023-10-08T05:01:23;12.37;;;3.07;;
68989;SDS011;56046;47.270;11.368;2023-10-08T05:04:03;12.48;;;3.13;;
68989;SDS011;56046;47.270;11.368;2023-10-08T05:06:29;9.27;;;3.00;;
68989;SDS011;56046;47.270;11.368;2023-10-08T05:09:04;8.93;;;2.90;;
68989;SDS011;56046;47.270;11.368;2023-10-08T05:11:58;8.90;;;2.50;;
68989;SDS011;56046;47.270;11.368;2023-10-08T05:14:41;9.63;;;3.30;;
68989;SDS011;56046;47.270;11.368;2023-10-08T05:17:21;15.00;;;5.37;;
68989;SDS011;56046;47.270;11.368;2023-10-08T05:19:57;11.43;;;4.60;;
68989;SDS011;56046;47.270;11.368;2023-10-08T05:22:32;11.25;;;3.40;;
68989;SDS011;56046;47.270;11.368;2023-10-08T05:25:03;9.95;;;3.17;;
68989;SDS011;56046;47.270;11.368;2023-10-08T05:27:36;8.32;;;3.17;;
68989;SDS011;56046;47.270;11.368;2023-10-08T05:30:17;9.93;;;2.87;;
68989;SDS011;56046;47.270;11.368;2023-10-08T05:32:53;8.50;;;2.70;;
68989;SDS011;56046;47.270;11.368;2023-10-08T05:35:40;8.50;;;3.30;;
68989;SDS011;56046;47.270;11.368;2023-10-08T05:38:05;8.75;;;2.90;;
68989;SDS011;56046;47.270;11.368;2023-10-08T05:40:50;8.77;;;3.00;;
68989;SDS011;56046;47.270;11.368;2023-10-08T05:43:21;12.47;;;4.17;;
68989;SDS011;56046;47.270;11.368;2023-10-08T05:48:48;11.88;;;3.60;;
68989;SDS011;56046;47.270;11.368;2023-10-08T05:51:28;9.20;;;3.08;;
68989;SDS011;56046;47.270;11.368;2023-10-08T05:54:12;8.80;;;3.17;;
68989;SDS011;56046;47.270;11.368;2023-10-08T05:56:57;10.07;;;2.93;;
68989;SDS011;56046;47.270;11.368;2023-10-08T05:59:34;9.32;;;3.33;;
68989;SDS011;56046;47.270;11.368;2023-10-08T06:02:19;12.48;;;3.10;;
68989;SDS011;56046;47.270;11.368;2023-10-08T06:05:00;10.98;;;2.80;;
68989;SDS011;56046;47.270;11.368;2023-10-08T06:10:16;9.97;;;2.80;;
68989;SDS011;56046;47.270;11.368;2023-10-08T06:13:03;12.48;;;2.92;;
68989;SDS011;56046;47.270;11.368;2023-10-08T06:18:21;9.20;;;2.53;;
68989;SDS011;56046;47.270;11.368;2023-10-08T06:21:03;10.30;;;2.90;;
68989;SDS011;56046;47.270;11.368;2023-10-08T06:23:37;12.77;;;3.10;;
68989;SDS011;56046;47.270;11.368;2023-10-08T06:26:03;10.30;;;2.47;;
68989;SDS011;56046;47.270;11.368;2023-10-08T06:28:42;8.00;;;3.47;;
68989;SDS011;56046;47.270;11.368;2023-10-08T06:31:08;10.45;;;2.75;;
68989;SDS011;56046;47.270;11.368;2023-10-08T06:33:43;9.20;;;2.72;;
68989;SDS011;56046;47.270;11.368;2023-10-08T06:36:09;12.77;;;3.87;;
68989;SDS011;56046;47.270;11.368;2023-10-08T06:38:34;7.45;;;2.45;;
68989;SDS011;56046;47.270;11.368;2023-10-08T06:41:00;10.40;;;3.27;;
68989;SDS011;56046;47.270;11.368;2023-10-08T06:43:26;13.45;;;5.00;;
68989;SDS011;56046;47.270;11.368;2023-10-08T06:45:52;11.85;;;3.85;;
68989;SDS011;56046;47.270;11.368;2023-10-08T06:48:18;12.17;;;3.17;;
68989;SDS011;56046;47.270;11.368;2023-10-08T06:50:44;14.60;;;4.05;;
68989;SDS011;56046;47.270;11.368;2023-10-08T06:53:10;12.48;;;3.40;;
68989;SDS011;56046;47.270;11.368;2023-10-08T06:55:38;13.57;;;3.53;;
68989;SDS011;56046;47.270;11.368;2023-10-08T06:58:05;9.98;;;3.33;;
68989;SDS011;56046;47.270;11.368;2023-10-08T07:00:48;11.63;;;3.33;;
68989;SDS011;56046;47.270;11.368;2023-10-08T07:03:14;11.50;;;3.17;;
68989;SDS011;56046;47.270;11.368;2023-10-08T07:05:45;7.72;;;2.85;;
68989;SDS011;56046;47.270;11.368;2023-10-08T07:08:22;13.10;;;3.45;;
68989;SDS011;56046;47.270;11.368;2023-10-08T07:10:48;12.32;;;3.33;;
68989;SDS011;56046;47.270;11.368;2023-10-08T07:13:14;9.70;;;3.13;;
68989;SDS011;56046;47.270;11.368;2023-10-08T07:15:42;10.65;;;3.42;;
68989;SDS011;56046;47.270;11.368;2023-10-08T07:18:10;12.38;;;3.22;;
68989;SDS011;56046;47.270;11.368;2023-10-08T07:20:38;8.57;;;3.38;;
68989;SDS011;56046;47.270;11.368;2023-10-08T07:23:08;8.93;;;3.88;;
68989;SDS011;56046;47.270;11.368;2023-10-08T07:25:43;11.00;;;3.50;;
68989;SDS011;56046;47.270;11.368;2023-10-08T07:28:11;13.88;;;3.80;;
68989;SDS011;56046;47.270;11.368;2023-10-08T07:30:37;10.57;;;3.43;;
68989;SDS011;56046;47.270;11.368;2023-10-08T07:33:08;12.00;;;3.67;;
68989;SDS011;56046;47.270;11.368;2023-10-08T07:35:42;10.10;;;3.47;;
68989;SDS011;56046;47.270;11.368;2023-10-08T07:38:16;12.50;;;4.00;;
68989;SDS011;56046;47.270;11.368;2023-10-08T07:40:41;12.17;;;3.30;;
68989;SDS011;56046;47.270;11.368;2023-10-08T07:43:07;9.30;;;2.93;;
68989;SDS011;56046;47.270;11.368;2023-10-08T07:45:33;13.90;;;3.60;;
68989;SDS011;56046;47.270;11.368;2023-10-08T07:48:00;9.07;;;3.47;;
68989;SDS011;56046;47.270;11.368;2023-10-08T07:50:25;15.80;;;3.87;;
68989;SDS011;56046;47.270;11.368;2023-10-08T07:52:54;11.48;;;3.25;;
68989;SDS011;56046;47.270;11.368;2023-10-08T07:55:21;11.80;;;3.83;;
68989;SDS011;56046;47.270;11.368;2023-10-08T07:57:47;13.63;;;4.20;;
68989;SDS011;56046;47.270;11.368;2023-10-08T08:00:13;12.10;;;4.32;;
68989;SDS011;56046;47.270;11.368;2023-10-08T08:02:47;12.73;;;4.25;;
68989;SDS011;56046;47.270;11.368;2023-10-08T08:05:13;13.53;;;3.73;;
68989;SDS011;56046;47.270;11.368;2023-10-08T08:07:42;9.90;;;4.35;;
68989;SDS011;56046;47.270;11.368;2023-10-08T08:10:08;11.60;;;4.72;;
68989;SDS011;56046;47.270;11.368;2023-10-08T08:12:36;12.65;;;4.50;;
68989;SDS011;56046;47.270;11.368;2023-10-08T08:15:02;11.53;;;3.63;;
68989;SDS011;56046;47.270;11.368;2023-10-08T08:17:39;10.48;;;3.72;;
68989;SDS011;56046;47.270;11.368;2023-10-08T08:20:05;13.03;;;3.47;;
68989;SDS011;56046;47.270;11.368;2023-10-08T08:22:42;10.13;;;3.85;;
68989;SDS011;56046;47.270;11.368;2023-10-08T08:25:10;10.27;;;4.22;;
68989;SDS011;56046;47.270;11.368;2023-10-08T08:27:51;10.43;;;4.55;;
68989;SDS011;56046;47.270;11.368;2023-10-08T08:30:18;14.82;;;4.00;;
68989;SDS011;56046;47.270;11.368;2023-10-08T08:32:44;13.83;;;3.90;;
68989;SDS011;56046;47.270;11.368;2023-10-08T08:35:10;10.98;;;4.03;;
68989;SDS011;56046;47.270;11.368;2023-10-08T08:37:35;11.87;;;4.20;;
68989;SDS011;56046;47.270;11.368;2023-10-08T08:40:03;11.80;;;3.90;;
68989;SDS011;56046;47.270;11.368;2023-10-08T08:42:34;10.98;;;4.05;;
68989;SDS011;56046;47.270;11.368;2023-10-08T08:45:03;9.77;;;4.35;;
68989;SDS011;56046;47.270;11.368;2023-10-08T08:47:33;13.82;;;4.38;;
68989;SDS011;56046;47.270;11.368;2023-10-08T08:49:59;13.83;;;4.97;;
68989;SDS011;56046;47.270;11.368;2023-10-08T08:52:33;12.82;;;4.38;;
68989;SDS011;56046;47.270;11.368;2023-10-08T08:54:58;11.97;;;4.80;;
68989;SDS011;56046;47.270;11.368;2023-10-08T08:57:25;13.63;;;4.47;;
68989;SDS011;56046;47.270;11.368;2023-10-08T08:59:53;14.37;;;5.37;;
68989;SDS011;56046;47.270;11.368;2023-10-08T09:02:20;14.40;;;4.88;;
68989;SDS011;56046;47.270;11.368;2023-10-08T09:04:47;12.85;;;4.53;;
68989;SDS011;56046;47.270;11.368;2023-10-08T09:07:13;11.47;;;4.57;;
68989;SDS011;56046;47.270;11.368;2023-10-08T09:09:38;11.10;;;4.68;;
68989;SDS011;56046;47.270;11.368;2023-10-08T09:12:06;10.17;;;5.07;;
68989;SDS011;56046;47.270;11.368;2023-10-08T09:14:35;11.00;;;5.22;;
68989;SDS011;56046;47.270;11.368;2023-10-08T09:17:01;14.45;;;5.45;;
68989;SDS011;56046;47.270;11.368;2023-10-08T09:19:29;11.10;;;5.03;;
68989;SDS011;56046;47.270;11.368;2023-10-08T09:24:27;14.27;;;5.38;;
68989;SDS011;56046;47.270;11.368;2023-10-08T09:26:53;12.97;;;5.33;;
68989;SDS011;56046;47.270;11.368;2023-10-08T09:29:23;13.45;;;4.82;;
68989;SDS011;56046;47.270;11.368;2023-10-08T09:31:52;11.33;;;4.83;;
68989;SDS011;56046;47.270;11.368;2023-10-08T09:34:20;12.93;;;4.55;;
68989;SDS011;56046;47.270;11.368;2023-10-08T09:36:46;11.43;;;4.83;;
68989;SDS011;56046;47.270;11.368;2023-10-08T09:39:11;14.33;;;4.20;;
68989;SDS011;56046;47.270;11.368;2023-10-08T09:41:46;12.43;;;4.63;;
68989;SDS011;56046;47.270;11.368;2023-10-08T09:44:12;13.70;;;4.53;;
68989;SDS011;56046;47.270;11.368;2023-10-08T09:46:37;10.20;;;4.67;;
68989;SDS011;56046;47.270;11.368;2023-10-08T09:49:03;10.45;;;4.60;;
68989;SDS011;56046;47.270;11.368;2023-10-08T09:51:34;14.13;;;5.53;;
68989;SDS011;56046;47.270;11.368;2023-10-08T09:56:35;14.03;;;4.47;;
68989;SDS011;56046;47.270;11.368;2023-10-08T09:59:00;10.32;;;4.10;;
68989;SDS011;56046;47.270;11.368;2023-10-08T10:01:26;11.60;;;4.93;;
68989;SDS011;56046;47.270;11.368;2023-10-08T10:03:51;11.30;;;4.60;;
68989;SDS011;56046;47.270;11.368;2023-10-08T10:06:17;12.55;;;4.05;;
68989;SDS011;56046;47.270;11.368;2023-10-08T10:08:43;12.87;;;5.03;;
68989;SDS011;56046;47.270;11.368;2023-10-08T10:11:08;15.80;;;4.57;;
68989;SDS011;56046;47.270;11.368;2023-10-08T10:13:45;11.70;;;4.82;;
68989;SDS011;56046;47.270;11.368;2023-10-08T10:16:17;12.47;;;4.60;;
68989;SDS011;56046;47.270;11.368;2023-10-08T10:18:44;13.68;;;4.00;;
68989;SDS011;56046;47.270;11.368;2023-10-08T10:29:10;12.40;;;4.10;;
68989;SDS011;56046;47.270;11.368;2023-10-08T10:31:34;14.65;;;3.72;;
68989;SDS011;56046;47.270;11.368;2023-10-08T10:34:08;11.05;;;3.53;;
68989;SDS011;56046;47.270;11.368;2023-10-08T10:36:36;12.05;;;3.33;;
68989;SDS011;56046;47.270;11.368;2023-10-08T10:39:02;9.10;;;3.60;;
68989;SDS011;56046;47.270;11.368;2023-10-08T10:41:41;14.20;;;3.78;;
68989;SDS011;56046;47.270;11.368;2023-10-08T10:44:07;12.93;;;4.03;;
68989;SDS011;56046;47.270;11.368;2023-10-08T10:46:33;10.82;;;3.70;;
68989;SDS011;56046;47.270;11.368;2023-10-08T10:49:01;10.20;;;3.83;;
68989;SDS011;56046;47.270;11.368;2023-10-08T10:51:49;13.63;;;3.87;;
68989;SDS011;56046;47.270;11.368;2023-10-08T10:54:17;12.93;;;4.05;;
68989;SDS011;56046;47.270;11.368;2023-10-08T10:56:48;14.18;;;4.50;;
68989;SDS011;56046;47.270;11.368;2023-10-08T10:59:28;13.27;;;4.45;;
68989;SDS011;56046;47.270;11.368;2023-10-08T11:01:53;11.90;;;4.40;;
68989;SDS011;56046;47.270;11.368;2023-10-08T11:04:31;14.13;;;4.55;;
68989;SDS011;56046;47.270;11.368;2023-10-08T11:06:56;14.70;;;3.93;;
68989;SDS011;56046;47.270;11.368;2023-10-08T11:09:26;13.52;;;3.97;;
68989;SDS011;56046;47.270;11.368;2023-10-08T11:12:03;14.88;;;4.00;;
68989;SDS011;56046;47.270;11.368;2023-10-08T11:14:41;12.63;;;4.40;;
68989;SDS011;56046;47.270;11.368;2023-10-08T11:17:13;10.20;;;3.30;;
68989;SDS011;56046;47.270;11.368;2023-10-08T11:19:44;11.95;;;3.17;;
68989;SDS011;56046;47.270;11.368;2023-10-08T11:22:14;13.25;;;3.58;;
68989;SDS011;56046;47.270;11.368;2023-10-08T11:24:46;11.75;;;3.88;;
68989;SDS011;56046;47.270;11.368;2023-10-08T11:27:20;14.33;;;4.47;;
68989;SDS011;56046;47.270;11.368;2023-10-08T11:29:54;14.10;;;4.70;;
68989;SDS011;56046;47.270;11.368;2023-10-08T11:32:23;18.88;;;4.50;;
68989;SDS011;56046;47.270;11.368;2023-10-08T11:34:57;14.05;;;4.20;;
68989;SDS011;56046;47.270;11.368;2023-10-08T11:37:28;10.93;;;3.92;;
68989;SDS011;56046;47.270;11.368;2023-10-08T11:39:53;15.13;;;3.67;;
68989;SDS011;56046;47.270;11.368;2023-10-08T11:42:23;16.27;;;4.07;;
68989;SDS011;56046;47.270;11.368;2023-10-08T11:45:09;14.35;;;4.70;;
68989;SDS011;56046;47.270;11.368;2023-10-08T11:47:45;13.90;;;3.58;;
68989;SDS011;56046;47.270;11.368;2023-10-08T11:50:14;13.63;;;4.07;;
68989;SDS011;56046;47.270;11.368;2023-10-08T11:52:44;13.40;;;4.30;;
68989;SDS011;56046;47.270;11.368;2023-10-08T11:55:10;16.55;;;5.38;;
68989;SDS011;56046;47.270;11.368;2023-10-08T11:57:43;12.80;;;4.50;;
68989;SDS011;56046;47.270;11.368;2023-10-08T12:00:10;13.57;;;4.78;;
68989;SDS011;56046;47.270;11.368;2023-10-08T12:02:44;13.18;;;5.05;;
68989;SDS011;56046;47.270;11.368;2023-10-08T12:05:10;12.47;;;4.93;;
68989;SDS011;56046;47.270;11.368;2023-10-08T12:07:44;12.85;;;5.03;;
68989;SDS011;56046;47.270;11.368;2023-10-08T12:10:09;13.55;;;4.85;;
68989;SDS011;56046;47.270;11.368;2023-10-08T12:12:36;14.95;;;4.35;;
68989;SDS011;56046;47.270;11.368;2023-10-08T12:15:01;15.03;;;4.60;;
68989;SDS011;56046;47.270;11.368;2023-10-08T12:17:28;13.98;;;4.53;;
68989;SDS011;56046;47.270;11.368;2023-10-08T12:20:04;16.85;;;4.90;;
68989;SDS011;56046;47.270;11.368;2023-10-08T12:22:37;13.40;;;3.80;;
68989;SDS011;56046;47.270;11.368;2023-10-08T12:25:02;12.30;;;4.23;;
68989;SDS011;56046;47.270;11.368;2023-10-08T12:27:29;16.83;;;4.33;;
68989;SDS011;56046;47.270;11.368;2023-10-08T12:29:55;14.73;;;3.53;;
68989;SDS011;56046;47.270;11.368;2023-10-08T12:32:23;14.70;;;4.10;;
68989;SDS011;56046;47.270;11.368;2023-10-08T12:34:51;16.23;;;3.90;;
68989;SDS011;56046;47.270;11.368;2023-10-08T12:37:18;14.43;;;3.72;;
68989;SDS011;56046;47.270;11.368;2023-10-08T12:39:44;16.07;;;3.97;;
68989;SDS011;56046;47.270;11.368;2023-10-08T12:42:25;10.75;;;3.63;;
68989;SDS011;56046;47.270;11.368;2023-10-08T12:44:50;14.30;;;4.07;;
68989;SDS011;56046;47.270;11.368;2023-10-08T12:47:15;12.53;;;4.00;;
68989;SDS011;56046;47.270;11.368;2023-10-08T12:49:41;17.00;;;3.63;;
68989;SDS011;56046;47.270;11.368;2023-10-08T12:52:06;11.70;;;3.80;;
68989;SDS011;56046;47.270;11.368;2023-10-08T12:54:34;14.90;;;4.35;;
68989;SDS011;56046;47.270;11.368;2023-10-08T12:57:10;10.90;;;3.40;;
68989;SDS011;56046;47.270;11.368;2023-10-08T12:59:35;13.48;;;4.10;;
68989;SDS011;56046;47.270;11.368;2023-10-08T13:02:00;12.33;;;3.13;;
68989;SDS011;56046;47.270;11.368;2023-10-08T13:04:32;13.95;;;4.32;;
68989;SDS011;56046;47.270;11.368;2023-10-08T13:07:00;16.90;;;3.77;;
68989;SDS011;56046;47.270;11.368;2023-10-08T13:09:31;10.45;;;3.97;;
68989;SDS011;56046;47.270;11.368;2023-10-08T13:12:02;16.45;;;4.40;;
68989;SDS011;56046;47.270;11.368;2023-10-08T13:14:27;13.73;;;4.03;;
68989;SDS011;56046;47.270;11.368;2023-10-08T13:16:53;15.10;;;3.30;;
68989;SDS011;56046;47.270;11.368;2023-10-08T13:19:19;12.85;;;4.13;;
68989;SDS011;56046;47.270;11.368;2023-10-08T13:21:45;12.15;;;3.70;;
68989;SDS011;56046;47.270;11.368;2023-10-08T13:24:12;17.70;;;4.40;;
68989;SDS011;56046;47.270;11.368;2023-10-08T13:26:38;16.67;;;4.07;;
68989;SDS011;56046;47.270;11.368;2023-10-08T13:29:04;13.88;;;4.40;;
68989;SDS011;56046;47.270;11.368;2023-10-08T13:31:34;12.93;;;3.60;;
68989;SDS011;56046;47.270;11.368;2023-10-08T13:34:01;13.20;;;4.00;;
68989;SDS011;56046;47.270;11.368;2023-10-08T13:36:29;16.42;;;5.30;;
68989;SDS011;56046;47.270;11.368;2023-10-08T13:38:55;11.50;;;3.95;;
68989;SDS011;56046;47.270;11.368;2023-10-08T13:41:21;13.68;;;3.78;;
68989;SDS011;56046;47.270;11.368;2023-10-08T13:43:48;13.67;;;3.83;;
68989;SDS011;56046;47.270;11.368;2023-10-08T13:46:17;10.43;;;3.42;;
68989;SDS011;56046;47.270;11.368;2023-10-08T13:48:43;13.68;;;3.80;;
68989;SDS011;56046;47.270;11.368;2023-10-08T13:51:16;12.85;;;3.78;;
68989;SDS011;56046;47.270;11.368;2023-10-08T13:53:55;16.02;;;4.30;;
68989;SDS011;56046;47.270;11.368;2023-10-08T13:56:28;14.67;;;3.73;;
68989;SDS011;56046;47.270;11.368;2023-10-08T13:58:56;13.50;;;4.22;;
68989;SDS011;56046;47.270;11.368;2023-10-08T14:01:38;17.92;;;4.18;;
68989;SDS011;56046;47.270;11.368;2023-10-08T14:04:06;14.73;;;3.72;;
68989;SDS011;56046;47.270;11.368;2023-10-08T14:06:33;16.17;;;4.45;;
68989;SDS011;56046;47.270;11.368;2023-10-08T14:09:00;19.37;;;5.03;;
68989;SDS011;56046;47.270;11.368;2023-10-08T14:11:26;12.80;;;4.55;;
68989;SDS011;56046;47.270;11.368;2023-10-08T14:13:58;16.20;;;3.75;;
68989;SDS011;56046;47.270;11.368;2023-10-08T14:16:50;13.57;;;3.92;;
68989;SDS011;56046;47.270;11.368;2023-10-08T14:19:17;13.85;;;3.65;;
68989;SDS011;56046;47.270;11.368;2023-10-08T14:21:43;12.60;;;3.63;;
68989;SDS011;56046;47.270;11.368;2023-10-08T14:24:18;14.32;;;3.30;;
68989;SDS011;56046;47.270;11.368;2023-10-08T14:26:44;11.25;;;4.10;;
68989;SDS011;56046;47.270;11.368;2023-10-08T14:29:17;11.48;;;4.07;;
68989;SDS011;56046;47.270;11.368;2023-10-08T14:31:43;13.10;;;3.70;;
68989;SDS011;56046;47.270;11.368;2023-10-08T14:34:14;10.20;;;2.97;;
68989;SDS011;56046;47.270;11.368;2023-10-08T14:36:46;13.30;;;3.90;;
68989;SDS011;56046;47.270;11.368;2023-10-08T14:39:31;12.57;;;3.47;;
68989;SDS011;56046;47.270;11.368;2023-10-08T14:42:15;9.27;;;3.08;;
68989;SDS011;56046;47.270;11.368;2023-10-08T14:44:59;14.60;;;3.42;;
68989;SDS011;56046;47.270;11.368;2023-10-08T14:47:25;15.07;;;3.50;;
68989;SDS011;56046;47.270;11.368;2023-10-08T14:49:51;12.38;;;3.65;;
68989;SDS011;56046;47.270;11.368;2023-10-08T14:52:17;12.82;;;3.70;;
68989;SDS011;56046;47.270;11.368;2023-10-08T14:54:44;11.05;;;3.35;;
68989;SDS011;56046;47.270;11.368;2023-10-08T14:57:11;11.37;;;3.13;;
68989;SDS011;56046;47.270;11.368;2023-10-08T14:59:40;12.95;;;3.67;;
68989;SDS011;56046;47.270;11.368;2023-10-08T15:02:06;13.23;;;3.00;;
68989;SDS011;56046;47.270;11.368;2023-10-08T15:04:32;10.30;;;3.33;;